Terminal Aerodrome Forecast
Issued by NWS

Home | Current Version | Previous Version | Text Only | Print | Product List | Glossary On
Versions: 1 2 3 4 5 6 7 8 9 10 11 12
519
FTUS46 KSGX 181738
TAFONT
TAF
KONT 181738Z 1818/1924 VRB06KT P6SM SCT250
     FM182100 25009KT P6SM SCT250
     FM190300 26005KT P6SM SCT250
     FM191200 VRB04KT 4SM BR BKN005
     FM191600 VRB04KT P6SM OVC010
     FM192100 25009KT P6SM VCSH OVC025=

USA.gov is the U.S. government's official web portal to all federal, state and local government web resources and services.